Time,TemperatureF,DewpointF,PressureIn,WindDirection,WindDirectionDegrees,WindSpeedMPH,WindSpeedGustMPH,Humidity,HourlyPrecipIn,Conditions,Clouds,dailyrainin,SoftwareType,DateUTC
2013-03-14 00:00:00,45.5,45.0,30.11,NNW,327,0.0,1.0,98,0.00,,,0.08,Wunderground v.1.15,2013-03-14 07:00:00,
2013-03-14 00:05:00,45.7,45.2,30.11,NNW,327,1.0,1.0,98,0.00,,,0.08,Wunderground v.1.15,2013-03-14 07:05:00,
2013-03-14 00:10:00,45.9,45.4,30.12,West,277,1.0,3.0,98,0.00,,,0.00,Wunderground v.1.15,2013-03-14 07:10:00,
2013-03-14 00:15:00,45.0,44.5,30.12,WNW,288,2.0,3.0,98,0.00,,,0.00,Wunderground v.1.15,2013-03-14 07:15:00,
2013-03-14 00:20:00,45.9,45.6,30.12,WNW,288,2.0,2.0,99,0.00,,,0.00,Wunderground v.1.15,2013-03-14 07:20:00,
2013-03-14 00:30:00,46.1,45.6,30.12,North,349,1.0,4.0,98,0.00,,,0.00,Wunderground v.1.15,2013-03-14 07:30:00,
2013-03-14 00:35:00,46.1,45.6,30.12,NNW,341,2.0,4.0,98,0.00,,,0.00,Wunderground v.1.15,2013-03-14 07:35:00,
2013-03-14 00:40:00,46.0,45.5,30.11,North,355,2.0,4.0,98,0.00,,,0.00,Wunderground v.1.15,2013-03-14 07:40:00,
2013-03-14 00:45:00,45.9,45.4,30.11,North,9,2.0,4.0,98,0.00,,,0.00,Wunderground v.1.15,2013-03-14 07:45:00,
2013-03-14 00:50:00,46.0,45.5,30.11,NNW,327,2.0,3.0,98,0.00,,,0.00,Wunderground v.1.15,2013-03-14 07:50:00,
2013-03-14 00:55:00,46.2,45.7,30.11,NNE,28,2.0,3.0,98,0.00,,,0.00,Wunderground v.1.15,2013-03-14 07:55:00,
2013-03-14 01:00:00,46.4,45.9,30.11,NNW,339,1.0,1.0,98,0.00,,,0.00,Wunderground v.1.15,2013-03-14 08:00:00,
2013-03-14 01:05:00,46.6,46.1,30.11,NNW,327,2.0,2.0,98,0.00,,,0.00,Wunderground v.1.15,2013-03-14 08:05:00,
2013-03-14 01:10:00,46.6,46.1,30.11,NNW,334,3.0,5.0,98,0.00,,,0.00,Wunderground v.1.15,2013-03-14 08:10:00,
2013-03-14 01:15:00,46.7,46.2,30.11,NNW,332,3.0,5.0,98,0.00,,,0.00,Wunderground v.1.15,2013-03-14 08:15:00,
2013-03-14 01:20:00,46.7,46.2,30.12,NNW,340,2.0,2.0,98,0.00,,,0.00,Wunderground v.1.15,2013-03-14 08:20:00,
2013-03-14 01:25:00,46.7,46.2,30.12,NNW,327,2.0,5.0,98,0.00,,,0.00,Wunderground v.1.15,2013-03-14 08:25:00,
2013-03-14 01:30:00,46.7,46.2,30.12,NW,321,3.0,3.0,98,0.00,,,0.00,Wunderground v.1.15,2013-03-14 08:30:00,
2013-03-14 01:35:00,46.7,46.2,30.11,WNW,297,3.0,3.0,98,0.00,,,0.00,Wunderground v.1.15,2013-03-14 08:35:00,
2013-03-14 01:40:00,46.6,46.1,30.11,NW,321,3.0,3.0,98,0.00,,,0.00,Wunderground v.1.15,2013-03-14 08:40:00,
2013-03-14 01:45:00,46.5,46.0,30.11,NNW,346,3.0,3.0,98,0.00,,,0.00,Wunderground v.1.15,2013-03-14 08:45:00,
2013-03-14 01:50:00,46.5,46.0,30.12,NNW,329,2.0,2.0,98,0.00,,,0.00,Wunderground v.1.15,2013-03-14 08:50:00,
2013-03-14 01:55:00,46.4,45.9,30.12,NW,304,2.0,2.0,98,0.00,,,0.00,Wunderground v.1.15,2013-03-14 08:55:00,
2013-03-14 02:00:00,46.5,46.0,30.12,NNW,347,1.0,1.0,98,0.00,,,0.00,Wunderground v.1.15,2013-03-14 09:00:00,
2013-03-14 02:05:00,46.3,45.8,30.11,North,5,1.0,2.0,98,0.00,,,0.00,Wunderground v.1.15,2013-03-14 09:05:00,
2013-03-14 02:10:00,46.1,45.6,30.11,North,9,2.0,4.0,98,0.00,,,0.00,Wunderground v.1.15,2013-03-14 09:10:00,
2013-03-14 02:15:00,45.9,45.4,30.11,NNE,18,2.0,4.0,98,0.00,,,0.00,Wunderground v.1.15,2013-03-14 09:15:00,
2013-03-14 02:25:00,45.6,44.8,30.10,NE,40,1.0,2.0,97,0.00,,,0.00,Wunderground v.1.15,2013-03-14 09:25:00,
2013-03-14 02:30:00,45.5,45.0,30.09,North,5,1.0,2.0,98,0.00,,,0.00,Wunderground v.1.15,2013-03-14 09:30:00,
2013-03-14 02:35:00,45.4,44.9,30.09,North,5,1.0,2.0,98,0.00,,,0.00,Wunderground v.1.15,2013-03-14 09:35:00,
2013-03-14 02:40:00,45.3,44.8,30.10,West,268,1.0,3.0,98,0.00,,,0.00,Wunderground v.1.15,2013-03-14 09:40:00,
2013-03-14 02:45:00,45.2,44.4,30.11,West,266,2.0,5.0,97,0.00,,,0.00,Wunderground v.1.15,2013-03-14 09:45:00,
2013-03-14 02:50:00,45.0,44.2,30.11,West,261,4.0,4.0,97,0.00,,,0.00,Wunderground v.1.15,2013-03-14 09:50:00,
2013-03-14 03:00:00,45.0,44.5,30.11,NW,320,2.0,2.0,98,0.00,,,0.00,Wunderground v.1.15,2013-03-14 10:00:00,
2013-03-14 03:05:00,45.1,44.6,30.11,NW,315,2.0,2.0,98,0.00,,,0.00,Wunderground v.1.15,2013-03-14 10:05:00,
2013-03-14 03:10:00,45.2,44.7,30.10,NNW,348,1.0,1.0,98,0.00,,,0.00,Wunderground v.1.15,2013-03-14 10:10:00,
2013-03-14 03:15:00,45.1,44.3,30.10,NE,44,2.0,3.0,97,0.00,,,0.00,Wunderground v.1.15,2013-03-14 10:15:00,
2013-03-14 03:20:00,45.1,44.6,30.09,NE,51,2.0,2.0,98,0.00,,,0.00,Wunderground v.1.15,2013-03-14 10:20:00,